Time;durP1;ratioP1;P1;durP2;ratioP2;P2;SDS_P1;SDS_P2;PMS_P1;PMS_P2;Temp;Humidity;BMP_temperature;BMP_pressure;BME280_temperature;BME280_humidity;BME280_pressure;Samples;Min_cycle;Max_cycle;Signal;HPM_P1;HPM_P2
2021/09/17 00:01:32;;;;;;;6.60;2.70;;;;;;;14.75;100.00;100509.09;2616508;31;20031;-47
2021/09/17 00:03:59;;;;;;;7.20;2.67;;;;;;;14.73;100.00;100510.78;2616879;31;20125;-46
2021/09/17 00:06:27;;;;;;;4.13;2.70;;;;;;;14.74;100.00;100515.09;2615699;36;20038;-49
2021/09/17 00:08:54;;;;;;;4.47;2.63;;;;;;;14.72;100.00;100511.66;2616298;36;20030;-45
2021/09/17 00:11:22;;;;;;;6.35;2.70;;;;;;;14.72;100.00;100506.50;2616093;36;20042;-47
2021/09/17 00:13:49;;;;;;;7.05;2.78;;;;;;;14.71;100.00;100508.22;2616473;36;20582;-46
2021/09/17 00:16:16;;;;;;;5.45;2.72;;;;;;;14.72;100.00;100506.50;2616457;31;20031;-44
2021/09/17 00:18:44;;;;;;;3.88;2.78;;;;;;;14.69;100.00;100497.00;2616834;31;20038;-49
2021/09/17 00:21:11;;;;;;;7.22;2.92;;;;;;;14.71;100.00;100497.03;2615573;36;20061;-46
2021/09/17 00:23:40;;;;;;;5.70;2.83;;;;;;;14.71;100.00;100497.91;2616729;31;20038;-45
2021/09/17 00:26:08;;;;;;;4.68;2.47;;;;;;;14.71;100.00;100494.47;2616293;36;20042;-51
2021/09/17 00:28:35;;;;;;;4.40;2.75;;;;;;;14.72;100.00;100498.75;2615307;36;20031;-44
2021/09/17 00:31:03;;;;;;;4.72;2.58;;;;;;;14.74;100.00;100499.63;2617208;31;20037;-44
2021/09/17 00:33:31;;;;;;;5.38;2.65;;;;;;;14.75;100.00;100498.78;2617259;31;20034;-46
2021/09/17 00:35:58;;;;;;;6.65;2.42;;;;;;;14.78;100.00;100498.78;2616466;31;20066;-45
2021/09/17 00:38:25;;;;;;;4.50;2.72;;;;;;;14.80;100.00;100497.09;2615698;36;20034;-44
2021/09/17 00:40:52;;;;;;;4.45;2.30;;;;;;;14.84;100.00;100495.41;2615823;36;20065;-44
2021/09/17 00:43:20;;;;;;;4.85;2.45;;;;;;;14.84;100.00;100493.69;2615665;36;20022;-43
2021/09/17 00:45:47;;;;;;;6.15;2.70;;;;;;;14.85;100.00;100489.38;2616540;31;20035;-44
2021/09/17 00:48:14;;;;;;;4.97;2.78;;;;;;;14.83;100.00;100480.75;2615636;36;20057;-48
2021/09/17 00:50:43;;;;;;;7.60;3.10;;;;;;;14.84;100.00;100482.50;2615861;36;20423;-44
2021/09/17 00:53:11;;;;;;;4.93;3.00;;;;;;;14.86;100.00;100483.38;2615946;31;20038;-47
2021/09/17 00:55:38;;;;;;;5.60;2.53;;;;;;;14.86;100.00;100491.97;2616308;31;20034;-45
2021/09/17 00:58:05;;;;;;;6.82;2.83;;;;;;;14.86;100.00;100476.50;2615513;36;20034;-44
2021/09/17 01:00:32;;;;;;;7.13;2.90;;;;;;;14.87;100.00;100480.78;2615598;36;20035;-46
2021/09/17 01:03:00;;;;;;;5.07;3.10;;;;;;;14.89;100.00;100484.25;2615667;36;20018;-45
2021/09/17 01:05:27;;;;;;;5.03;2.58;;;;;;;14.91;100.00;100479.09;2615884;31;20034;-47
2021/09/17 01:07:54;;;;;;;5.72;2.58;;;;;;;14.90;100.00;100483.38;2616098;31;20605;-44
2021/09/17 01:10:21;;;;;;;5.57;2.80;;;;;;;14.90;100.00;100485.13;2615904;31;20034;-45
2021/09/17 01:12:49;;;;;;;6.68;2.75;;;;;;;14.91;100.00;100477.38;2615721;36;20041;-45
2021/09/17 01:15:16;;;;;;;4.53;2.83;;;;;;;14.91;100.00;100485.09;2615457;36;20050;-45
2021/09/17 01:17:45;;;;;;;6.63;3.00;;;;;;;14.92;100.00;100480.81;2615283;36;20035;-48
2021/09/17 01:20:16;;;;;;;5.38;2.85;;;;;;;14.92;100.00;100480.81;2616290;31;20026;-46
2021/09/17 01:22:44;;;;;;;5.20;2.90;;;;;;;14.91;100.00;100485.09;2615474;36;20094;-43
2021/09/17 01:25:15;;;;;;;3.03;2.50;;;;;;;14.92;100.00;100484.25;2616501;36;20042;-57
2021/09/17 01:27:44;;;;;;;4.22;2.53;;;;;;;14.91;100.00;100485.09;2615555;31;20037;-44
2021/09/17 01:30:13;;;;;;;6.25;2.90;;;;;;;14.90;100.00;100473.06;2615326;36;20038;-44
2021/09/17 01:32:41;;;;;;;6.95;2.90;;;;;;;14.92;100.00;100473.94;2615813;31;20458;-44
2021/09/17 01:35:11;;;;;;;3.10;2.70;;;;;;;14.93;100.00;100478.25;2616129;31;20582;-44
2021/09/17 01:37:39;;;;;;;10.75;3.00;;;;;;;14.92;100.00;100470.50;2615911;31;20150;-44
2021/09/17 01:40:08;;;;;;;7.70;2.83;;;;;;;14.91;100.00;100477.38;2615121;36;20038;-47
2021/09/17 01:42:35;;;;;;;2.97;2.67;;;;;;;14.91;100.00;100476.50;2615186;36;20030;-44
2021/09/17 01:45:04;;;;;;;3.97;3.10;;;;;;;14.91;100.00;100473.94;2615351;36;20552;-44
2021/09/17 01:47:31;;;;;;;8.02;3.30;;;;;;;14.91;100.00;100466.19;2615668;31;20045;-44
2021/09/17 01:49:58;;;;;;;5.43;2.80;;;;;;;14.90;100.00;100470.50;2615060;36;20578;-47
2021/09/17 01:52:26;;;;;;;4.10;2.67;;;;;;;14.91;100.00;100471.34;2615322;36;20037;-44
2021/09/17 01:54:53;;;;;;;4.53;2.55;;;;;;;14.90;100.00;100465.34;2615303;36;20042;-45
2021/09/17 01:57:20;;;;;;;5.32;2.70;;;;;;;14.91;100.00;100469.63;2615112;36;20041;-44
2021/09/17 01:59:47;;;;;;;3.10;2.35;;;;;;;14.92;100.00;100463.63;2615964;36;20570;-45
2021/09/17 02:02:14;;;;;;;10.13;3.00;;;;;;;14.93;100.00;100460.22;2616943;31;20034;-45
2021/09/17 02:04:41;;;;;;;5.70;2.60;;;;;;;14.92;100.00;100462.75;2617215;31;20042;-45
2021/09/17 02:07:08;;;;;;;5.82;2.33;;;;;;;14.92;100.00;100463.63;2616485;36;20029;-44
2021/09/17 02:09:35;;;;;;;2.50;2.10;;;;;;;14.93;100.00;100457.63;2616692;31;20057;-44
2021/09/17 02:12:03;;;;;;;4.95;2.47;;;;;;;14.91;100.00;100461.91;2616493;36;20423;-46
2021/09/17 02:14:30;;;;;;;8.05;2.60;;;;;;;14.90;100.00;100460.19;2616479;31;20570;-44
2021/09/17 02:16:57;;;;;;;4.47;2.35;;;;;;;14.89;100.00;100455.91;2616192;31;20030;-49
2021/09/17 02:19:24;;;;;;;4.85;2.28;;;;;;;14.89;100.00;100461.06;2615951;36;20042;-44
2021/09/17 02:21:54;;;;;;;4.50;2.80;;;;;;;14.85;100.00;100459.31;2616025;31;20038;-48
2021/09/17 02:24:22;;;;;;;3.33;2.45;;;;;;;14.84;100.00;100459.31;2615979;36;20562;-48
2021/09/17 02:26:49;;;;;;;6.25;2.35;;;;;;;14.82;100.00;100459.28;2615807;36;20047;-44
2021/09/17 02:29:16;;;;;;;4.38;2.25;;;;;;;14.77;100.00;100443.78;2616638;31;20023;-43
2021/09/17 02:31:44;;;;;;;5.32;2.45;;;;;;;14.78;100.00;100447.22;2617023;31;20598;-47
2021/09/17 02:34:11;;;;;;;5.78;2.95;;;;;;;14.76;100.00;100447.22;2616403;36;20546;-45
2021/09/17 02:36:38;;;;;;;5.82;2.70;;;;;;;14.76;100.00;100439.50;2616297;36;20037;-47
2021/09/17 02:39:05;;;;;;;8.38;2.35;;;;;;;14.77;100.00;100441.22;2615865;31;20046;-44
2021/09/17 02:41:33;;;;;;;6.70;3.03;;;;;;;14.75;100.00;100442.94;2615978;36;20053;-45
2021/09/17 02:44:01;;;;;;;4.18;2.42;;;;;;;14.75;100.00;100437.78;2616307;31;20056;-51
2021/09/17 02:46:28;;;;;;;7.47;2.47;;;;;;;14.73;100.00;100447.22;2616240;36;20458;-48
2021/09/17 02:48:55;;;;;;;5.72;2.75;;;;;;;14.72;100.00;100442.06;2615962;36;20037;-45
2021/09/17 02:51:22;;;;;;;5.43;2.83;;;;;;;14.73;100.00;100443.78;2616074;31;20030;-50
2021/09/17 02:53:49;;;;;;;4.35;2.47;;;;;;;14.74;100.00;100442.91;2616092;36;20038;-44
2021/09/17 02:56:17;;;;;;;4.65;2.40;;;;;;;14.71;100.00;100440.34;2615926;36;20038;-46
2021/09/17 02:58:44;;;;;;;5.63;2.70;;;;;;;14.70;100.00;100434.31;2616828;31;20466;-46
2021/09/17 03:01:11;;;;;;;5.50;2.60;;;;;;;14.70;100.00;100434.31;2616386;31;20034;-45
2021/09/17 03:03:38;;;;;;;4.03;2.40;;;;;;;14.71;100.00;100430.03;2616012;36;20053;-44
2021/09/17 03:06:06;;;;;;;7.55;2.63;;;;;;;14.71;100.00;100427.47;2616013;36;20022;-45
2021/09/17 03:08:33;;;;;;;11.52;2.97;;;;;;;14.70;100.00;100425.75;2616111;31;20031;-48
2021/09/17 03:11:00;;;;;;;4.30;2.60;;;;;;;14.70;100.00;100431.75;2615614;36;20034;-46
2021/09/17 03:13:28;;;;;;;7.78;2.80;;;;;;;14.71;100.00;100427.47;2616010;36;20213;-46
2021/09/17 03:15:55;;;;;;;6.65;2.70;;;;;;;14.71;100.00;100424.88;2616582;31;20328;-47
2021/09/17 03:18:22;;;;;;;9.07;2.90;;;;;;;14.71;100.00;100433.47;2616740;31;20053;-44
2021/09/17 03:20:51;;;;;;;5.32;2.58;;;;;;;14.67;100.00;100426.56;2617191;31;20045;-44
2021/09/17 03:23:19;;;;;;;3.40;2.83;;;;;;;14.62;100.00;100428.28;2616801;31;20918;-44
2021/09/17 03:25:46;;;;;;;7.88;2.70;;;;;;;14.46;100.00;100434.16;2615807;36;20029;-44
2021/09/17 03:28:14;;;;;;;6.22;3.08;;;;;;;14.31;100.00;100427.19;2616857;36;20034;-49
2021/09/17 03:30:41;;;;;;;6.05;2.90;;;;;;;14.20;100.00;100422.00;2615233;36;20023;-44
2021/09/17 03:33:11;;;;;;;4.28;2.20;;;;;;;14.16;100.00;100419.38;2615316;36;20038;-44
2021/09/17 03:35:39;;;;;;;2.75;2.00;;;;;;;14.14;100.00;100419.38;2616006;31;20027;-47
2021/09/17 03:38:06;;;;;;;3.22;2.47;;;;;;;14.11;100.00;100421.06;2614740;36;20069;-44
2021/09/17 03:40:35;;;;;;;6.20;2.63;;;;;;;14.11;100.00;100414.19;2614651;36;20046;-44
2021/09/17 03:43:03;;;;;;;4.30;2.60;;;;;;;14.08;100.00;100414.16;2614850;36;20031;-44
2021/09/17 03:45:32;;;;;;;7.63;3.30;;;;;;;14.07;100.00;100411.59;2615647;31;20596;-45
2021/09/17 03:48:07;;;;;;;3.33;2.75;;;;;;;14.02;100.00;100403.84;2614699;36;20038;-45
2021/09/17 03:50:34;;;;;;;4.90;3.10;;;;;;;13.99;100.00;100408.97;2615248;31;20086;-45
2021/09/17 03:53:02;;;;;;;5.80;3.50;;;;;;;14.02;100.00;100409.00;2615475;31;20030;-44
2021/09/17 03:55:29;;;;;;;5.20;3.40;;;;;;;14.02;100.00;100415.00;2615012;36;20062;-45
2021/09/17 03:57:57;;;;;;;5.20;3.40;;;;;;;14.04;100.00;100417.56;2614953;31;20038;-46
2021/09/17 04:00:24;;;;;;;6.88;3.42;;;;;;;14.05;100.00;100408.13;2615474;36;20454;-44
2021/09/17 04:02:51;;;;;;;7.75;3.08;;;;;;;14.06;100.00;100409.88;2615211;31;20038;-46
2021/09/17 04:05:18;;;;;;;5.20;3.15;;;;;;;14.06;100.00;100415.88;2614827;36;20022;-44
2021/09/17 04:07:46;;;;;;;4.97;3.10;;;;;;;14.05;100.00;100413.28;2614762;36;20042;-46
2021/09/17 04:10:15;;;;;;;4.22;2.90;;;;;;;13.99;100.00;100407.25;2614859;36;20065;-45
2021/09/17 04:12:43;;;;;;;7.70;2.30;;;;;;;13.95;100.00;100410.63;2615276;31;20029;-44
2021/09/17 04:15:11;;;;;;;6.07;2.30;;;;;;;13.89;100.00;100407.16;2614984;36;20029;-44
2021/09/17 04:17:38;;;;;;;4.47;2.30;;;;;;;13.88;100.00;100408.03;2615067;31;20662;-47
2021/09/17 04:20:07;;;;;;;6.97;3.58;;;;;;;13.84;100.00;100412.28;2615319;31;20034;-46
2021/09/17 04:22:35;;;;;;;2.90;1.90;;;;;;;13.81;100.00;100411.38;2613748;31;20039;-47
2021/09/17 04:25:05;;;;;;;4.07;2.60;;;;;;;13.80;100.00;100413.09;2615203;31;20023;-46
2021/09/17 04:27:34;;;;;;;6.00;2.22;;;;;;;13.79;100.00;100406.25;2614291;36;20057;-46
2021/09/17 04:30:04;;;;;;;4.65;2.38;;;;;;;13.78;100.00;100413.97;2615261;31;20042;-45
2021/09/17 04:32:32;;;;;;;4.57;1.80;;;;;;;13.81;100.00;100413.97;2614779;31;20030;-44
2021/09/17 04:35:00;;;;;;;2.58;1.70;;;;;;;13.80;100.00;100414.81;2614985;36;20030;-46
2021/09/17 04:37:28;;;;;;;1.85;1.40;;;;;;;13.81;100.00;100419.09;2614811;31;20030;-45
2021/09/17 04:39:56;;;;;;;3.13;1.60;;;;;;;13.83;100.00;100425.16;2614611;36;20030;-45
2021/09/17 04:42:23;;;;;;;1.88;1.70;;;;;;;13.88;100.00;100426.03;2614853;36;20030;-45
2021/09/17 04:44:50;;;;;;;6.68;2.40;;;;;;;13.89;100.00;100420.03;2615931;31;20042;-44
2021/09/17 04:47:17;;;;;;;3.25;1.73;;;;;;;13.89;100.00;100431.19;2614981;31;20061;-46
2021/09/17 04:49:45;;;;;;;6.30;2.17;;;;;;;13.89;100.00;100428.63;2615269;31;20031;-46
2021/09/17 04:52:12;;;;;;;3.85;1.48;;;;;;;13.91;100.00;100424.38;2615063;31;20038;-46
2021/09/17 04:54:40;;;;;;;2.00;1.70;;;;;;;13.90;100.00;100426.91;2615948;31;20027;-47
2021/09/17 04:57:07;;;;;;;2.30;1.50;;;;;;;13.88;100.00;100431.19;2614780;36;20695;-43
2021/09/17 04:59:34;;;;;;;4.07;1.67;;;;;;;13.86;100.00;100423.44;2614661;36;20057;-46
2021/09/17 05:02:01;;;;;;;3.50;1.30;;;;;;;13.88;100.00;100428.63;2614790;36;20034;-45
2021/09/17 05:04:31;;;;;;;1.92;1.35;;;;;;;13.87;100.00;100426.91;2615547;31;20446;-44
2021/09/17 05:06:58;;;;;;;4.03;1.50;;;;;;;13.85;100.00;100428.59;2614486;31;20045;-46
2021/09/17 05:09:32;;;;;;;2.10;1.35;;;;;;;13.88;100.00;100421.75;2615112;31;20038;-44
2021/09/17 05:12:09;;;;;;;3.90;1.40;;;;;;;13.91;100.00;100431.19;2614207;36;20570;-45
2021/09/17 05:14:37;;;;;;;3.10;1.70;;;;;;;13.90;100.00;100427.75;2614600;36;20586;-46
2021/09/17 05:17:05;;;;;;;4.50;1.83;;;;;;;13.92;100.00;100420.94;2615181;31;20524;-45
2021/09/17 05:19:33;;;;;;;6.05;1.77;;;;;;;13.92;100.00;100420.06;2614470;31;20033;-45
2021/09/17 05:22:02;;;;;;;1.80;1.30;;;;;;;13.89;100.00;100428.63;2615503;36;20446;-44
2021/09/17 05:24:32;;;;;;;2.63;1.40;;;;;;;13.91;100.00;100421.78;2615314;31;20046;-46
2021/09/17 05:27:00;;;;;;;3.25;2.08;;;;;;;13.93;100.00;100416.66;2615328;31;20125;-45
2021/09/17 05:29:27;;;;;;;2.58;1.73;;;;;;;13.95;100.00;100420.06;2615451;36;20493;-45
2021/09/17 05:31:54;;;;;;;1.90;1.50;;;;;;;13.98;100.00;100422.69;2614653;36;20030;-45
2021/09/17 05:34:23;;;;;;;3.55;1.70;;;;;;;14.00;100.00;100427.00;2615559;31;20489;-44
2021/09/17 05:36:51;;;;;;;2.17;1.33;;;;;;;14.05;100.00;100421.88;2615009;31;20053;-46
2021/09/17 05:39:19;;;;;;;3.90;1.90;;;;;;;14.10;100.00;100422.78;2615980;31;20022;-45
2021/09/17 05:41:46;;;;;;;3.85;1.50;;;;;;;14.09;100.00;100428.75;2615846;36;20452;-45
2021/09/17 05:44:13;;;;;;;2.65;1.50;;;;;;;14.10;100.00;100432.22;2615359;36;20023;-46
2021/09/17 05:46:40;;;;;;;4.53;1.67;;;;;;;14.14;100.00;100426.22;2616242;31;20062;-47
2021/09/17 05:49:07;;;;;;;5.20;1.30;;;;;;;14.21;100.00;100438.31;2614994;36;20031;-45
2021/09/17 05:51:34;;;;;;;1.15;1.10;;;;;;;14.23;100.00;100427.13;2615294;31;20035;-45
2021/09/17 05:54:05;;;;;;;1.63;1.15;;;;;;;14.30;100.00;100432.34;2615835;31;20034;-45
2021/09/17 05:56:32;;;;;;;2.40;1.15;;;;;;;14.34;100.00;100432.38;2616616;31;20030;-47
2021/09/17 05:58:59;;;;;;;3.40;1.65;;;;;;;14.33;100.00;100438.38;2614921;36;20031;-45
2021/09/17 06:01:27;;;;;;;2.10;1.02;;;;;;;14.38;100.00;100428.97;2615042;36;20035;-50
2021/09/17 06:03:54;;;;;;;2.13;0.80;;;;;;;14.37;100.00;100432.38;2615632;31;20054;-48
2021/09/17 06:06:21;;;;;;;2.05;1.08;;;;;;;14.33;100.00;100429.78;2615146;36;20034;-44
2021/09/17 06:08:48;;;;;;;3.50;1.23;;;;;;;14.33;100.00;100437.50;2615314;36;20039;-44
2021/09/17 06:11:17;;;;;;;4.53;0.93;;;;;;;14.35;100.00;100440.97;2615803;31;20030;-46
2021/09/17 06:13:44;;;;;;;3.35;1.00;;;;;;;14.34;100.00;100439.25;2615484;36;20451;-44
2021/09/17 06:16:11;;;;;;;4.03;1.20;;;;;;;14.33;100.00;100430.66;2614692;36;20041;-46
2021/09/17 06:18:42;;;;;;;4.55;1.00;;;;;;;14.34;100.00;100437.53;2614354;36;20106;-46
2021/09/17 06:21:10;;;;;;;2.00;0.90;;;;;;;14.42;100.00;100435.88;2615511;31;20574;-44
2021/09/17 06:23:38;;;;;;;1.50;0.80;;;;;;;14.51;100.00;100430.81;2614950;36;20047;-44
2021/09/17 06:26:11;;;;;;;1.60;1.00;;;;;;;14.62;100.00;100433.41;2615136;31;20042;-45
2021/09/17 06:28:39;;;;;;;6.22;1.30;;;;;;;14.71;100.00;100437.75;2615632;31;20465;-45
2021/09/17 06:31:06;;;;;;;3.15;1.10;;;;;;;14.77;100.00;100443.78;2614618;36;20035;-43
2021/09/17 06:33:33;;;;;;;0.70;0.60;;;;;;;14.86;100.00;100437.81;2614897;36;20057;-43
2021/09/17 06:36:00;;;;;;;2.83;0.90;;;;;;;14.99;100.00;100442.19;2615610;31;20600;-43
2021/09/17 06:38:27;;;;;;;2.88;0.90;;;;;;;15.12;100.00;100443.09;2614857;36;20466;-42
2021/09/17 06:40:55;;;;;;;0.95;0.65;;;;;;;15.98;100.00;100443.22;2615432;31;20042;-43
2021/09/17 06:43:22;;;;;;;0.98;0.70;;;;;;;15.56;100.00;100449.19;2614834;36;20035;-44
2021/09/17 06:45:50;;;;;;;2.25;0.65;;;;;;;15.36;100.00;100444.00;2616638;31;20441;-46
2021/09/17 06:48:17;;;;;;;2.35;0.80;;;;;;;15.18;100.00;100440.50;2615440;31;20038;-43
2021/09/17 06:50:44;;;;;;;1.33;0.80;;;;;;;15.14;100.00;100436.19;2615348;31;20118;-46
2021/09/17 06:53:12;;;;;;;1.52;0.68;;;;;;;15.12;100.00;100443.09;2615164;31;20031;-45
2021/09/17 06:55:40;;;;;;;2.22;0.70;;;;;;;15.05;100.00;100441.31;2615467;31;20132;-45
2021/09/17 06:58:07;;;;;;;1.48;0.73;;;;;;;15.00;100.00;100446.47;2614844;36;20044;-46
2021/09/17 07:00:37;;;;;;;2.42;1.17;;;;;;;14.91;100.00;100436.13;2614371;36;20035;-45
2021/09/17 07:03:06;;;;;;;2.03;0.70;;;;;;;14.86;100.00;100431.81;2615424;31;20086;-46
2021/09/17 07:05:33;;;;;;;1.95;0.50;;;;;;;14.72;100.00;100439.47;2615183;31;20450;-45
2021/09/17 07:08:04;;;;;;;2.55;0.55;;;;;;;14.71;100.00;100445.50;2614952;36;20425;-46
2021/09/17 07:10:33;;;;;;;3.70;0.60;;;;;;;14.88;100.00;100446.44;2614487;36;20042;-47
2021/09/17 07:13:01;;;;;;;2.65;1.02;;;;;;;14.97;100.00;100446.44;2614729;36;20078;-45
2021/09/17 07:15:29;;;;;;;1.50;0.60;;;;;;;15.02;100.00;100446.47;2614683;36;20031;-46
2021/09/17 07:17:57;;;;;;;2.22;0.47;;;;;;;15.12;100.00;100447.38;2615263;31;20429;-45
2021/09/17 10:46:20;;;;;;;;;;;;;;;16.33;95.74;100506.94;2615219;36;20038;-44
2021/09/17 10:48:58;;;;;;;0.93;0.30;;;;;;;16.25;95.90;100494.88;2615791;36;20042;-47
2021/09/17 10:51:33;;;;;;;0.70;0.30;;;;;;;16.25;96.29;100501.75;2615944;36;20031;-46
2021/09/17 10:54:07;;;;;;;5.70;0.90;;;;;;;16.21;96.44;100505.22;2617427;31;20019;-44
2021/09/17 10:57:00;;;;;;;1.13;0.20;;;;;;;16.36;96.67;100512.06;2616360;31;20714;-50
2021/09/17 10:59:39;;;;;;;2.15;0.60;;;;;;;16.17;94.53;100511.22;2579740;36;2004530;-46
2021/09/17 11:02:08;;;;;;;0.98;0.20;;;;;;;16.24;97.47;100508.66;2617138;31;20449;-48
2021/09/17 11:04:46;;;;;;;1.75;0.25;;;;;;;16.48;97.41;100509.50;2615996;36;20173;-45
2021/09/17 11:07:17;;;;;;;2.60;0.30;;;;;;;16.59;94.99;100507.75;2579601;36;2004369;-45
2021/09/17 11:09:45;;;;;;;0.28;0.25;;;;;;;16.59;95.67;100512.91;2616353;31;20139;-45
2021/09/17 11:12:28;;;;;;;0.45;0.22;;;;;;;16.55;95.79;100503.47;2615659;36;20033;-46
2021/09/17 11:15:06;;;;;;;0.20;0.10;;;;;;;16.82;95.86;100506.84;2616832;31;20035;-48
2021/09/17 11:17:42;;;;;;;1.05;0.30;;;;;;;16.97;93.23;100504.25;2616247;31;20061;-46
2021/09/17 11:20:23;;;;;;;0.85;0.50;;;;;;;16.71;94.68;100510.31;2580541;31;2004749;-45
2021/09/17 11:23:08;;;;;;;0.73;0.28;;;;;;;17.07;94.55;100497.31;2616636;31;20181;-46
2021/09/17 11:25:41;;;;;;;3.40;0.60;;;;;;;17.17;93.29;100505.00;2615324;36;20034;-48
2021/09/17 11:28:32;;;;;;;2.28;0.40;;;;;;;16.95;91.90;100500.78;2615670;36;20023;-47
2021/09/17 11:31:16;;;;;;;1.00;0.30;;;;;;;17.20;90.67;100505.00;2579676;36;2004537;-46
2021/09/17 11:33:53;;;;;;;1.25;0.25;;;;;;;17.39;89.88;100508.38;2580442;31;2004563;-45
2021/09/17 11:36:43;;;;;;;1.33;0.35;;;;;;;17.71;87.96;100507.31;2616081;36;20061;-47
2021/09/17 11:39:13;;;;;;;1.55;0.25;;;;;;;17.54;87.50;100497.06;2579686;36;2004390;-46
2021/09/17 11:41:42;;;;;;;2.25;0.30;;;;;;;17.54;86.75;100494.47;2615644;36;20080;-46
2021/09/17 11:44:10;;;;;;;2.35;0.40;;;;;;;17.51;88.30;100499.66;2616700;36;20041;-50
2021/09/17 11:46:38;;;;;;;0.47;0.10;;;;;;;17.68;86.31;100496.97;2619105;36;20038;-49
2021/09/17 11:49:06;;;;;;;0.20;0.10;;;;;;;17.97;84.20;100499.38;2618617;31;20618;-48
2021/09/17 11:51:33;;;;;;;1.38;0.30;;;;;;;18.01;86.03;100501.09;2617488;36;20422;-50
2021/09/17 11:54:00;;;;;;;0.20;0.20;;;;;;;17.77;83.66;100505.56;2615989;36;20038;-48
2021/09/17 11:56:27;;;;;;;1.30;0.20;;;;;;;17.47;85.62;100498.84;2615663;36;20023;-46
2021/09/17 11:58:54;;;;;;;0.63;0.15;;;;;;;17.22;90.25;100499.81;2615800;36;20030;-46
2021/09/17 12:01:23;;;;;;;1.08;0.28;;;;;;;17.30;90.04;100508.41;2615925;36;20019;-44
2021/09/17 12:03:52;;;;;;;0.43;0.20;;;;;;;17.44;90.73;100501.44;2616134;36;20124;-48
2021/09/17 12:06:21;;;;;;;0.38;0.13;;;;;;;17.72;88.63;100509.03;2615661;36;20023;-46
2021/09/17 12:08:48;;;;;;;0.77;0.52;;;;;;;18.18;85.09;100508.72;2615836;36;20027;-46
2021/09/17 12:11:20;;;;;;;1.27;0.20;;;;;;;18.76;83.27;100509.03;2616503;31;20030;-45
2021/09/17 12:13:55;;;;;;;2.47;0.30;;;;;;;18.84;80.00;100508.97;2615828;36;20030;-45
2021/09/17 12:16:22;;;;;;;0.43;0.20;;;;;;;18.45;83.41;100503.31;2615396;36;20554;-48
2021/09/17 12:19:04;;;;;;;0.28;0.20;;;;;;;18.22;82.29;100498.31;2614993;36;20109;-46
2021/09/17 12:21:32;;;;;;;0.50;0.20;;;;;;;18.40;83.07;100494.72;2616519;31;20038;-47
2021/09/17 12:24:19;;;;;;;0.32;0.10;;;;;;;18.38;82.52;100495.59;2580690;31;2004635;-45
2021/09/17 12:26:55;;;;;;;0.88;0.20;;;;;;;18.31;80.63;100500.84;2616541;31;20457;-44
2021/09/17 12:29:23;;;;;;;1.60;0.13;;;;;;;18.09;83.77;100498.44;2616442;31;20022;-47
2021/09/17 12:31:52;;;;;;;0.30;0.20;;;;;;;18.11;80.54;100501.88;2616433;31;20037;-47
2021/09/17 12:34:21;;;;;;;1.30;0.20;;;;;;;18.17;79.83;100497.50;2615418;36;20042;-51
2021/09/17 12:36:51;;;;;;;0.70;0.20;;;;;;;18.48;80.99;100498.06;2615540;36;20109;-45
2021/09/17 12:39:26;;;;;;;0.88;0.20;;;;;;;18.30;79.17;100508.59;2615701;36;20034;-44
2021/09/17 12:42:10;;;;;;;0.30;0.20;;;;;;;18.42;79.52;100507.66;2616998;31;20030;-47
2021/09/17 12:44:49;;;;;;;1.65;0.30;;;;;;;18.46;79.66;100502.41;2616445;31;20030;-44
2021/09/17 12:47:26;;;;;;;0.28;0.20;;;;;;;17.93;79.69;100506.31;2579850;36;2004366;-44
2021/09/17 12:50:08;;;;;;;0.20;0.20;;;;;;;17.75;79.33;100520.28;2616330;31;20701;-45
2021/09/17 12:52:39;;;;;;;1.58;0.20;;;;;;;17.67;80.75;100505.63;2615466;36;20038;-45
2021/09/17 12:55:20;;;;;;;0.20;0.20;;;;;;;17.79;79.09;100511.63;2616433;31;20022;-45
2021/09/17 12:58:01;;;;;;;0.10;0.10;;;;;;;17.99;79.07;100511.47;2578423;36;2004252;-45
2021/09/17 13:00:41;;;;;;;0.90;0.20;;;;;;;18.03;75.74;100507.13;2616298;31;20031;-46
2021/09/17 13:03:12;;;;;;;1.08;0.10;;;;;;;18.25;76.21;100515.56;2615993;31;20573;-45
2021/09/17 13:05:42;;;;;;;0.30;0.30;;;;;;;18.48;76.30;100507.56;2615572;31;20034;-44
2021/09/17 13:08:11;;;;;;;1.75;0.30;;;;;;;18.50;76.90;100516.22;2614181;36;20085;-44
2021/09/17 13:10:39;;;;;;;0.20;0.20;;;;;;;18.34;78.29;100510.31;2615380;31;20034;-51
2021/09/17 13:13:08;;;;;;;0.38;0.20;;;;;;;18.02;79.08;100513.16;2613158;31;20035;-53
2021/09/17 13:15:36;;;;;;;2.13;0.20;;;;;;;18.07;81.51;100513.97;2616312;31;20107;-44
2021/09/17 13:18:06;;;;;;;0.30;0.10;;;;;;;17.78;79.88;100520.25;2615668;36;20454;-44
2021/09/17 13:20:41;;;;;;;1.75;0.20;;;;;;;17.55;82.35;100511.72;2616650;31;20458;-52
2021/09/17 13:23:09;;;;;;;1.17;0.25;;;;;;;17.36;82.96;100523.06;2615478;36;20158;-44
2021/09/17 13:25:37;;;;;;;0.63;0.10;;;;;;;17.35;83.81;100524.78;2615251;36;20026;-44
2021/09/17 13:28:06;;;;;;;1.00;0.10;;;;;;;17.43;84.41;100523.03;2614856;36;20041;-49
2021/09/17 13:30:37;;;;;;;2.38;0.22;;;;;;;17.68;86.34;100520.28;2614743;36;20050;-47
2021/09/17 13:33:06;;;;;;;0.35;0.30;;;;;;;17.72;81.36;100517.66;2615146;36;20041;-47
2021/09/17 13:35:42;;;;;;;0.60;0.40;;;;;;;17.96;81.51;100528.75;2614668;36;20061;-45
2021/09/17 13:38:10;;;;;;;0.32;0.30;;;;;;;17.92;79.44;100520.16;2615281;36;20474;-46
2021/09/17 13:40:37;;;;;;;0.57;0.10;;;;;;;17.64;81.29;100516.00;2614788;36;20033;-45
2021/09/17 13:43:05;;;;;;;1.75;0.20;;;;;;;17.37;82.60;100522.19;2615745;31;20054;-45
2021/09/17 13:45:33;;;;;;;0.20;0.10;;;;;;;17.21;82.27;100517.06;2614817;36;20034;-47
2021/09/17 13:48:01;;;;;;;0.40;0.17;;;;;;;17.04;82.45;100524.91;2614635;36;20038;-45
2021/09/17 13:50:29;;;;;;;0.93;0.28;;;;;;;17.27;83.81;100518.78;2615629;31;20034;-45
2021/09/17 13:52:59;;;;;;;0.10;0.10;;;;;;;17.22;81.48;100523.09;2615607;31;20022;-46
2021/09/17 13:55:32;;;;;;;1.13;0.30;;;;;;;17.30;81.26;100521.34;2615605;31;20042;-47
2021/09/17 13:58:01;;;;;;;2.25;0.13;;;;;;;17.70;81.35;100521.13;2615208;31;20030;-46
2021/09/17 14:00:29;;;;;;;0.13;0.13;;;;;;;17.43;82.60;100529.94;2616199;36;20443;-51
2021/09/17 14:03:00;;;;;;;0.15;0.13;;;;;;;17.23;83.64;100535.19;2615550;36;20038;-45
2021/09/17 14:05:28;;;;;;;0.20;0.20;;;;;;;16.96;84.30;100537.03;2617596;31;20327;-47
2021/09/17 14:07:56;;;;;;;0.32;0.13;;;;;;;16.76;85.12;100528.44;2615840;31;20582;-45
2021/09/17 14:10:24;;;;;;;0.75;0.08;;;;;;;16.63;86.41;100534.44;2615451;36;20042;-47
2021/09/17 14:12:51;;;;;;;0.30;0.20;;;;;;;16.24;87.20;100529.31;2617123;31;20038;-46
2021/09/17 14:15:19;;;;;;;1.42;0.20;;;;;;;16.10;87.33;100537.94;2616303;31;20038;-45
2021/09/17 14:17:46;;;;;;;0.22;0.10;;;;;;;15.98;88.14;100528.44;2616649;31;20426;-45
2021/09/17 14:20:14;;;;;;;0.10;0.10;;;;;;;15.83;87.32;100531.03;2615808;36;20460;-44
2021/09/17 14:22:41;;;;;;;0.85;0.13;;;;;;;15.85;89.05;100529.28;2615938;31;20034;-45
2021/09/17 14:25:10;;;;;;;1.25;0.15;;;;;;;15.93;89.41;100533.59;2615614;36;20030;-45
2021/09/17 14:27:37;;;;;;;1.17;0.10;;;;;;;15.86;87.29;100537.06;2615956;31;20061;-45
2021/09/17 14:30:06;;;;;;;0.30;0.10;;;;;;;15.97;88.97;100537.91;2615491;36;20061;-45
2021/09/17 14:32:33;;;;;;;1.70;0.20;;;;;;;16.08;89.04;100537.06;2616710;31;20037;-45
2021/09/17 14:35:01;;;;;;;0.30;0.20;;;;;;;16.17;87.09;100535.34;2616612;31;20146;-45
2021/09/17 14:37:28;;;;;;;0.60;0.20;;;;;;;16.32;86.29;100528.47;2616229;31;20031;-46
2021/09/17 14:39:55;;;;;;;0.70;0.25;;;;;;;16.68;86.87;100525.81;2615514;36;20260;-47
2021/09/17 14:42:22;;;;;;;2.45;0.40;;;;;;;17.05;83.22;100525.75;2615917;31;20022;-45
2021/09/17 14:44:49;;;;;;;0.38;0.10;;;;;;;17.40;82.53;100525.63;2615462;31;20030;-46
2021/09/17 14:47:17;;;;;;;0.30;0.20;;;;;;;17.61;80.70;100529.84;2615195;36;20030;-47
2021/09/17 14:49:44;;;;;;;0.32;0.20;;;;;;;17.32;82.15;100527.38;2615741;31;20037;-44
2021/09/17 14:52:11;;;;;;;0.68;0.30;;;;;;;17.18;83.00;100526.56;2615382;36;20033;-45
2021/09/17 14:54:38;;;;;;;1.05;0.30;;;;;;;16.98;83.06;100529.25;2615565;36;20030;-48